createdAt,value
2018-11-04T00:05:07.576Z,2.41
2018-11-04T00:11:02.535Z,2.95
2018-11-04T00:16:57.524Z,4.2
2018-11-04T00:22:52.537Z,4.29
2018-11-04T00:28:47.541Z,4.19
2018-11-04T00:34:42.623Z,2.56
2018-11-04T00:40:37.601Z,3.95
2018-11-04T00:46:32.604Z,4.46
2018-11-04T00:52:27.544Z,4.3
2018-11-04T00:58:22.570Z,4.29
2018-11-04T01:04:17.539Z,2.41
2018-11-04T01:10:12.535Z,5.67
2018-11-04T01:16:07.532Z,4.02
2018-11-04T01:22:02.528Z,8.54
2018-11-04T01:27:57.532Z,3.55
2018-11-04T01:33:52.547Z,3.43
2018-11-04T01:39:47.532Z,4.63
2018-11-04T01:45:42.549Z,3.28
2018-11-04T01:51:37.544Z,3.97
2018-11-04T01:57:32.580Z,3.04
2018-11-04T02:03:27.546Z,4.63
2018-11-04T02:09:22.550Z,4.26
2018-11-04T02:15:17.598Z,4.07
2018-11-04T02:21:12.542Z,6.37
2018-11-04T02:27:07.539Z,4.86
2018-11-04T02:33:02.577Z,8.7
2018-11-04T02:38:57.554Z,3.5
2018-11-04T02:44:52.564Z,9.73
2018-11-04T02:50:47.577Z,5.25
2018-11-04T02:56:42.540Z,4.87
2018-11-04T03:02:37.531Z,5.38
2018-11-04T03:08:32.551Z,4.98
2018-11-04T03:14:27.540Z,4.38
2018-11-04T03:20:22.538Z,4.9
2018-11-04T03:26:17.534Z,5.88
2018-11-04T03:32:12.570Z,7.33
2018-11-04T03:38:07.540Z,6.12
2018-11-04T03:44:02.530Z,6.14
2018-11-04T03:49:57.561Z,3.96
2018-11-04T03:55:52.537Z,4.13
2018-11-04T04:01:47.576Z,8.28
2018-11-04T04:07:42.538Z,5.03
2018-11-04T04:13:37.598Z,5.43
2018-11-04T04:19:32.555Z,5.53
2018-11-04T04:25:27.556Z,3.99
2018-11-04T04:31:22.584Z,6.82
2018-11-04T04:37:17.547Z,7.91
2018-11-04T04:43:12.539Z,4.73
2018-11-04T04:49:07.538Z,8.26
2018-11-04T04:55:02.536Z,4.96
2018-11-04T05:00:57.541Z,5.49
2018-11-04T05:06:52.582Z,4.85
2018-11-04T05:12:47.544Z,6.31
2018-11-04T05:18:42.552Z,2.87
2018-11-04T05:24:37.560Z,6.24
2018-11-04T05:30:32.538Z,6.76
2018-11-04T05:36:27.551Z,4.24
2018-11-04T05:42:22.535Z,5.85
2018-11-04T05:48:17.543Z,4.85
2018-11-04T05:54:12.561Z,9.49
2018-11-04T06:00:07.612Z,6.56
2018-11-04T06:06:02.545Z,6.9
2018-11-04T06:11:57.533Z,7.92
2018-11-04T06:17:52.554Z,3.91
2018-11-04T06:23:47.538Z,5.51
2018-11-04T06:29:42.606Z,8.74
2018-11-04T06:35:37.615Z,6.52
2018-11-04T06:41:32.607Z,3.88
2018-11-04T06:47:27.596Z,11.72
2018-11-04T06:53:22.548Z,7.37
2018-11-04T06:59:17.607Z,5.51
2018-11-04T07:05:12.558Z,4.8
2018-11-04T07:11:07.553Z,9.6
2018-11-04T07:17:02.566Z,7.03
2018-11-04T07:22:57.536Z,5.7
2018-11-04T07:28:52.574Z,6.39
2018-11-04T07:34:47.551Z,5.16
2018-11-04T07:40:42.531Z,7.23
2018-11-04T07:46:37.573Z,3.83
2018-11-04T07:52:32.548Z,9.19
2018-11-04T07:58:27.549Z,6.88
2018-11-04T08:04:22.578Z,3.81
2018-11-04T08:10:17.619Z,6.76
2018-11-04T08:16:12.598Z,5.37
2018-11-04T08:22:07.557Z,5.31
2018-11-04T08:28:02.556Z,8.08
2018-11-04T08:33:57.557Z,7.24
2018-11-04T08:39:52.715Z,9.95
2018-11-04T08:45:47.682Z,7.24
2018-11-04T08:51:42.559Z,6.09
2018-11-04T08:57:37.532Z,9.07
2018-11-04T09:03:33.184Z,5.42
2018-11-04T09:09:27.539Z,6.86
2018-11-04T09:15:22.540Z,7.97
2018-11-04T09:21:17.575Z,8.52
2018-11-04T09:27:12.543Z,6.7
2018-11-04T09:33:07.560Z,6.38
2018-11-04T09:39:02.563Z,7.11
2018-11-04T09:44:57.568Z,10.89
2018-11-04T09:50:52.584Z,9.26
2018-11-04T09:56:47.612Z,8
2018-11-04T10:02:42.571Z,10.17
2018-11-04T10:08:37.552Z,7.67
2018-11-04T10:14:32.570Z,16.32
2018-11-04T10:20:27.804Z,8.7
2018-11-04T10:26:22.584Z,9.09
2018-11-04T10:32:17.627Z,9.65
2018-11-04T10:38:12.579Z,10.27
2018-11-04T10:44:07.553Z,10.11
2018-11-04T10:50:02.617Z,10.57
2018-11-04T10:55:57.634Z,24.28
2018-11-04T11:01:52.580Z,10.39
2018-11-04T11:07:47.624Z,8.9
2018-11-04T11:13:42.569Z,11.46
2018-11-04T11:19:37.566Z,8.85
2018-11-04T11:25:32.565Z,11.57
2018-11-04T11:31:27.547Z,13.99
2018-11-04T11:37:22.590Z,13.11
2018-11-04T11:43:17.548Z,10.91
2018-11-04T11:49:12.614Z,10.9
2018-11-04T11:55:07.579Z,11.14
2018-11-04T12:01:02.587Z,13.09
2018-11-04T12:06:57.565Z,15.82
2018-11-04T12:12:52.554Z,22.45
2018-11-04T12:18:47.589Z,15.71
2018-11-04T12:24:42.584Z,14.38
2018-11-04T12:30:37.569Z,12.65
2018-11-04T12:36:32.559Z,13.51
2018-11-04T12:42:27.585Z,13.14
2018-11-04T12:48:22.567Z,9.35
2018-11-04T12:54:17.570Z,4.35
2018-11-04T13:00:12.619Z,4.2
2018-11-04T13:06:07.587Z,8.68
2018-11-04T13:12:02.573Z,6.29
2018-11-04T13:17:57.569Z,4.57
2018-11-04T13:23:52.575Z,8.28
2018-11-04T13:29:47.587Z,4.1
2018-11-04T13:35:42.580Z,6.76
2018-11-04T13:41:37.630Z,4.46
2018-11-04T13:47:32.595Z,4.34
2018-11-04T13:53:27.639Z,4.93
2018-11-04T13:59:22.632Z,5.71
2018-11-04T14:05:17.586Z,5.44
2018-11-04T14:11:12.594Z,7.16
2018-11-04T14:17:07.574Z,4.33
2018-11-04T14:23:02.579Z,7.17
2018-11-04T14:28:57.607Z,8
2018-11-04T14:34:52.602Z,6.98
2018-11-04T14:40:47.634Z,8.72
2018-11-04T14:46:42.580Z,9.59
2018-11-04T14:52:37.615Z,5.25
2018-11-04T14:58:32.593Z,10
2018-11-04T15:04:27.639Z,9.07
2018-11-04T15:10:22.591Z,7.77
2018-11-04T15:16:17.624Z,10.41
2018-11-04T15:22:12.605Z,7.78
2018-11-04T15:28:07.617Z,7.81
2018-11-04T15:34:02.743Z,5.89
2018-11-04T15:39:57.639Z,7.6
2018-11-04T15:45:52.642Z,9.19
2018-11-04T15:51:47.700Z,9.29
2018-11-04T15:57:42.593Z,13.62
2018-11-04T16:03:37.634Z,9.37
2018-11-04T16:09:32.671Z,7.36
2018-11-04T16:15:27.651Z,7.39
2018-11-04T16:21:22.611Z,11.38
2018-11-04T16:27:17.673Z,7.14
2018-11-04T16:33:12.655Z,7.81
2018-11-04T16:39:07.596Z,6.98
2018-11-04T16:45:02.628Z,10.66
2018-11-04T16:50:57.608Z,8.73
2018-11-04T16:56:52.621Z,8.02
2018-11-04T17:02:47.618Z,7.29
2018-11-04T17:08:42.639Z,7.85
2018-11-04T17:14:37.622Z,11.79
2018-11-04T17:20:32.607Z,9.36
2018-11-04T17:26:27.642Z,16.44
2018-11-04T17:32:22.635Z,12.2
2018-11-04T17:38:17.607Z,7.9
2018-11-04T17:44:12.619Z,6.53
2018-11-04T17:50:07.617Z,10.93
2018-11-04T17:56:02.619Z,14.5
2018-11-04T18:01:57.611Z,11.53
2018-11-04T18:07:52.617Z,10.73
2018-11-04T18:13:47.626Z,16.76
2018-11-04T18:19:42.655Z,21.86
2018-11-04T18:25:37.628Z,24.13
2018-11-04T18:31:32.678Z,21.94
2018-11-04T18:37:27.621Z,22.25
2018-11-04T18:43:22.673Z,19.88
2018-11-04T18:49:17.621Z,10.35
2018-11-04T18:55:12.632Z,11.53
2018-11-04T19:01:07.620Z,11.13
2018-11-04T19:07:02.607Z,8.86
2018-11-04T19:12:57.666Z,9.65
2018-11-04T19:18:52.840Z,12.07
2018-11-04T19:24:47.603Z,8.93
2018-11-04T19:30:42.654Z,5.5
2018-11-04T19:36:37.657Z,6.86
2018-11-04T19:42:32.797Z,11.47
2018-11-04T19:48:27.643Z,12.89
2018-11-04T19:54:22.610Z,9.13
2018-11-04T20:00:17.640Z,14.76
2018-11-04T20:06:12.724Z,13.62
2018-11-04T20:12:07.617Z,15.52
2018-11-04T20:18:02.610Z,14.72
2018-11-04T20:23:57.620Z,17.81
2018-11-04T20:35:47.698Z,10.56
2018-11-04T20:35:47.698Z,29.86
2018-11-04T20:35:47.737Z,10.56
2018-11-04T20:35:47.824Z,10.56
2018-11-04T20:35:47.824Z,10.56
2018-11-04T20:41:42.638Z,10.86
2018-11-04T20:47:37.634Z,5.44
2018-11-04T20:53:32.660Z,10.55
2018-11-04T20:59:27.653Z,5.53
2018-11-04T21:05:22.643Z,6.07
2018-11-04T21:11:17.645Z,6.19
2018-11-04T21:17:12.681Z,3.67
2018-11-04T21:23:07.633Z,5.43
2018-11-04T21:29:02.993Z,3.74
2018-11-04T21:34:57.669Z,4.54
2018-11-04T21:40:52.682Z,8.34
2018-11-04T21:46:47.672Z,4.24
2018-11-04T21:52:42.645Z,4.68
2018-11-04T21:58:37.670Z,1.91
2018-11-04T22:04:32.697Z,2.72
2018-11-04T22:10:27.764Z,1.71
2018-11-04T22:16:22.641Z,1.75
2018-11-04T22:22:17.797Z,1.46
2018-11-04T22:28:12.657Z,2.34
2018-11-04T22:34:07.634Z,1.2
2018-11-04T22:40:02.683Z,2.12
2018-11-04T22:45:57.671Z,1.14
2018-11-04T22:51:52.674Z,1.2
2018-11-04T22:57:47.655Z,1.24
2018-11-04T23:03:42.672Z,0.94
2018-11-04T23:09:37.661Z,3.43
2018-11-04T23:15:32.678Z,2.47
2018-11-04T23:21:27.705Z,6.61
2018-11-04T23:27:22.662Z,1.47
2018-11-04T23:33:17.700Z,3.87
2018-11-04T23:39:12.675Z,2.39
2018-11-04T23:45:07.688Z,1.9
2018-11-04T23:51:02.667Z,2
2018-11-04T23:56:57.917Z,1.8
